Time;durP1;ratioP1;P1;durP2;ratioP2;P2;SDS_P1;SDS_P2;PMS_P1;PMS_P2;Temp;Humidity;BMP_temperature;BMP_pressure;BME280_temperature;BME280_humidity;BME280_pressure;Samples;Min_cycle;Max_cycle;Signal;HPM_P1;HPM_P2
2022/04/10 00:00:48;;;;;;;8.73;5.60;;;3.80;99.90;;;;;;5047645;23;20636;-73
2022/04/10 00:03:34;;;;;;;6.80;4.83;;;3.70;99.90;;;;;;5027509;28;20456;-71
2022/04/10 00:06:19;;;;;;;6.45;4.70;;;3.70;99.90;;;;;;5030766;28;20412;-73
2022/04/10 00:09:05;;;;;;;5.57;4.47;;;3.70;99.90;;;;;;5029896;28;20248;-71
2022/04/10 00:11:52;;;;;;;5.70;4.80;;;3.80;99.90;;;;;;5026040;28;20521;-72
2022/04/10 00:14:38;;;;;;;7.18;4.68;;;4.00;99.90;;;;;;5029363;28;20457;-72
2022/04/10 00:17:23;;;;;;;9.00;5.40;;;3.80;99.90;;;;;;5034606;28;20201;-72
2022/04/10 00:20:11;;;;;;;6.32;4.88;;;3.70;99.90;;;;;;5028798;28;20834;-72
2022/04/10 00:22:56;;;;;;;7.78;5.90;;;3.80;99.90;;;;;;5020548;28;20200;-73
2022/04/10 00:25:42;;;;;;;10.52;5.45;;;3.80;99.90;;;;;;5031229;28;20200;-75
2022/04/10 00:28:29;;;;;;;8.73;4.93;;;3.70;99.90;;;;;;5030965;28;20226;-71
2022/04/10 00:31:15;;;;;;;5.90;4.78;;;3.60;99.90;;;;;;5025648;28;20204;-71
2022/04/10 00:34:01;;;;;;;6.35;4.45;;;3.60;99.90;;;;;;5027143;28;20216;-71
2022/04/10 00:36:46;;;;;;;6.55;4.78;;;3.70;99.90;;;;;;5032905;28;20216;-71
2022/04/10 00:39:32;;;;;;;8.90;4.88;;;3.80;99.90;;;;;;5028670;28;20232;-71
2022/04/10 00:42:17;;;;;;;7.37;4.53;;;3.70;99.90;;;;;;5022802;28;20339;-71
2022/04/10 00:45:06;;;;;;;9.05;4.85;;;3.80;99.90;;;;;;5028187;28;20444;-71
2022/04/10 00:47:52;;;;;;;11.35;4.82;;;3.80;99.90;;;;;;5020631;28;20749;-71
2022/04/10 00:51:39;;;;;;;8.35;5.07;;;3.90;99.90;;;;;;5031542;28;20332;-71
2022/04/10 00:53:45;;;;;;;5.28;4.07;;;4.00;99.90;;;;;;5024668;28;20205;-72
2022/04/10 00:56:31;;;;;;;9.52;4.50;;;4.00;99.90;;;;;;5027432;28;20218;-72
2022/04/10 00:59:16;;;;;;;5.00;4.03;;;3.90;99.90;;;;;;5026928;28;20244;-71
2022/04/10 01:02:03;;;;;;;5.90;4.70;;;3.90;99.90;;;;;;5025882;28;20204;-71
2022/04/10 01:04:49;;;;;;;8.00;4.68;;;3.80;99.90;;;;;;5024366;28;20281;-73
2022/04/10 01:07:35;;;;;;;6.00;4.07;;;3.80;99.90;;;;;;5031999;28;20267;-71
2022/04/10 01:10:21;;;;;;;7.43;5.70;;;3.70;99.90;;;;;;5029034;28;20225;-72
2022/04/10 01:13:07;;;;;;;6.53;5.00;;;3.60;99.90;;;;;;5026213;28;20448;-71
2022/04/10 01:15:52;;;;;;;9.30;4.70;;;3.60;99.90;;;;;;5027452;28;20236;-71
2022/04/10 01:18:41;;;;;;;5.18;3.83;;;3.60;99.90;;;;;;5032457;28;20343;-72
2022/04/10 01:21:29;;;;;;;5.78;4.95;;;3.60;99.90;;;;;;5028194;28;20287;-70
2022/04/10 01:24:16;;;;;;;4.13;3.70;;;3.60;99.90;;;;;;5029657;28;20677;-72
2022/04/10 01:27:02;;;;;;;6.10;5.45;;;3.60;99.90;;;;;;5028012;28;20213;-71
2022/04/10 01:29:48;;;;;;;6.83;5.50;;;3.60;99.90;;;;;;5024461;28;20236;-74
2022/04/10 01:32:33;;;;;;;6.82;5.22;;;3.60;99.90;;;;;;5025454;28;20451;-72
2022/04/10 01:35:20;;;;;;;5.93;4.80;;;3.60;99.90;;;;;;5027756;28;20220;-76
2022/04/10 01:38:07;;;;;;;7.22;4.50;;;3.60;99.90;;;;;;5032060;28;20196;-73
2022/04/10 01:40:54;;;;;;;7.38;4.13;;;3.50;99.90;;;;;;5024330;28;20237;-72
2022/04/10 01:43:46;;;;;;;9.93;5.20;;;3.50;99.90;;;;;;5024889;28;20242;-71
2022/04/10 01:46:33;;;;;;;5.72;4.63;;;3.40;99.90;;;;;;5025373;28;20187;-72
2022/04/10 01:49:19;;;;;;;6.30;4.97;;;3.50;99.90;;;;;;5025086;28;20697;-72
2022/04/10 01:52:05;;;;;;;8.45;5.10;;;3.50;99.90;;;;;;5022262;28;20348;-71
2022/04/10 01:54:51;;;;;;;9.07;5.70;;;3.50;99.90;;;;;;5029435;28;20200;-71
2022/04/10 01:57:38;;;;;;;7.10;4.90;;;3.50;99.90;;;;;;5026455;28;20203;-71
2022/04/10 02:00:23;;;;;;;11.77;5.10;;;3.50;99.90;;;;;;5026728;28;20631;-71
2022/04/10 02:03:09;;;;;;;7.90;5.35;;;3.50;99.90;;;;;;5025490;28;20343;-71
2022/04/10 02:05:55;;;;;;;5.32;4.10;;;3.40;99.90;;;;;;5026085;28;20344;-72
2022/04/10 02:08:42;;;;;;;5.00;4.05;;;3.30;99.90;;;;;;5031100;28;20200;-72
2022/04/10 02:11:27;;;;;;;8.75;4.93;;;3.30;99.90;;;;;;5025113;28;20217;-71
2022/04/10 02:14:14;;;;;;;6.40;5.00;;;3.20;99.90;;;;;;5030864;28;20268;-71
2022/04/10 02:17:00;;;;;;;8.45;4.97;;;3.10;99.90;;;;;;5023291;28;20216;-72
2022/04/10 02:19:45;;;;;;;6.38;4.95;;;3.10;99.90;;;;;;5026080;28;20316;-71
2022/04/10 02:22:31;;;;;;;14.57;5.63;;;3.10;99.90;;;;;;5028040;28;20224;-72
2022/04/10 02:25:17;;;;;;;6.93;5.10;;;3.10;99.90;;;;;;5031599;28;20303;-71
2022/04/10 02:28:03;;;;;;;6.70;5.40;;;3.10;99.90;;;;;;5032128;28;20203;-71
2022/04/10 02:30:50;;;;;;;5.40;4.78;;;3.10;99.90;;;;;;5024117;28;20610;-73
2022/04/10 02:33:37;;;;;;;6.70;5.07;;;3.10;99.90;;;;;;5034177;28;20575;-70
2022/04/10 02:36:22;;;;;;;6.32;5.15;;;3.10;99.90;;;;;;5030627;28;20220;-72
2022/04/10 02:39:08;;;;;;;8.38;5.25;;;3.20;99.90;;;;;;5036478;28;20551;-74
2022/04/10 02:41:54;;;;;;;7.90;5.38;;;3.10;99.90;;;;;;5030870;28;20326;-71
2022/04/10 02:44:39;;;;;;;6.35;5.13;;;3.20;99.90;;;;;;5030129;28;20211;-71
2022/04/10 02:47:27;;;;;;;5.45;4.63;;;3.20;99.90;;;;;;5031283;28;20279;-71
2022/04/10 02:50:13;;;;;;;4.82;4.10;;;3.20;99.90;;;;;;5027338;28;20226;-73
2022/04/10 02:52:58;;;;;;;6.78;4.97;;;3.30;99.90;;;;;;5029748;28;20585;-73
2022/04/10 02:55:44;;;;;;;6.53;5.68;;;3.00;99.90;;;;;;5028668;28;20676;-71
2022/04/10 02:58:30;;;;;;;9.23;5.15;;;2.90;99.90;;;;;;5030284;28;20563;-72
2022/04/10 03:01:16;;;;;;;6.65;5.82;;;2.80;99.90;;;;;;5029523;28;20337;-71
2022/04/10 03:04:03;;;;;;;6.38;5.25;;;2.70;99.90;;;;;;5032675;28;20199;-71
2022/04/10 03:06:48;;;;;;;8.43;6.93;;;2.70;99.90;;;;;;5030032;28;20267;-71
2022/04/10 03:09:34;;;;;;;13.05;8.93;;;2.70;99.90;;;;;;5031713;28;21110;-71
2022/04/10 03:12:20;;;;;;;12.13;7.60;;;2.60;99.90;;;;;;5032615;28;20331;-72
2022/04/10 03:15:07;;;;;;;14.18;7.35;;;2.60;99.90;;;;;;5025063;28;20540;-72
2022/04/10 03:17:53;;;;;;;11.45;6.43;;;2.60;99.90;;;;;;5030418;28;20199;-71
2022/04/10 03:20:40;;;;;;;9.80;6.70;;;2.60;99.90;;;;;;5026293;28;20234;-72
2022/04/10 03:23:25;;;;;;;9.70;7.22;;;2.50;99.90;;;;;;5031944;28;20590;-70
2022/04/10 03:26:11;;;;;;;10.48;6.05;;;2.60;99.90;;;;;;5032607;28;20332;-71
2022/04/10 03:28:57;;;;;;;8.20;5.95;;;2.70;99.90;;;;;;5024674;28;20199;-71
2022/04/10 03:31:43;;;;;;;6.55;5.60;;;2.70;99.90;;;;;;5025054;28;20597;-71
2022/04/10 03:34:29;;;;;;;10.02;6.10;;;2.70;99.90;;;;;;5031615;28;20243;-72
2022/04/10 03:37:15;;;;;;;5.85;5.13;;;2.80;99.90;;;;;;5031953;28;20655;-72
2022/04/10 03:40:03;;;;;;;6.38;5.20;;;2.80;99.90;;;;;;5023674;28;20362;-71
2022/04/10 03:42:49;;;;;;;7.97;5.30;;;3.00;99.90;;;;;;5029677;28;20207;-71
2022/04/10 03:45:34;;;;;;;6.57;5.20;;;2.90;99.90;;;;;;5028451;28;20211;-73
2022/04/10 03:48:20;;;;;;;11.02;5.60;;;2.90;99.90;;;;;;5028706;28;20219;-71
2022/04/10 03:51:05;;;;;;;6.90;5.25;;;2.70;99.90;;;;;;5030299;28;20232;-71
2022/04/10 03:53:52;;;;;;;8.55;4.75;;;2.60;99.90;;;;;;5029152;28;20245;-71
2022/04/10 03:56:38;;;;;;;5.85;4.65;;;2.60;99.90;;;;;;5026494;28;20313;-71
2022/04/10 03:59:24;;;;;;;5.63;5.03;;;2.50;99.90;;;;;;5024815;28;20235;-71
2022/04/10 04:02:10;;;;;;;6.65;5.40;;;2.50;99.90;;;;;;5024572;28;20633;-71
2022/04/10 04:04:55;;;;;;;11.43;6.18;;;2.50;99.90;;;;;;5027151;28;20199;-71
2022/04/10 04:07:41;;;;;;;6.95;5.70;;;2.60;99.90;;;;;;5026090;28;20202;-74
2022/04/10 04:10:28;;;;;;;6.20;5.35;;;2.60;99.90;;;;;;5031692;28;20591;-72
2022/04/10 04:13:14;;;;;;;6.47;5.18;;;2.60;99.90;;;;;;5033098;28;20218;-71
2022/04/10 04:16:00;;;;;;;10.10;5.85;;;2.60;99.90;;;;;;5023185;28;20224;-72
2022/04/10 04:18:45;;;;;;;8.10;5.05;;;2.50;99.90;;;;;;5025395;28;20295;-73
2022/04/10 04:21:31;;;;;;;7.97;4.80;;;2.30;99.90;;;;;;5031177;28;20208;-71
2022/04/10 04:24:16;;;;;;;9.93;5.25;;;2.30;99.90;;;;;;5029342;28;20286;-72
2022/04/10 04:27:04;;;;;;;7.72;5.78;;;2.00;99.90;;;;;;5033216;28;20255;-72
2022/04/10 04:29:49;;;;;;;7.75;6.18;;;2.10;99.90;;;;;;5023500;28;20224;-70
2022/04/10 04:32:34;;;;;;;8.23;5.85;;;2.00;99.90;;;;;;5031364;28;20208;-72
2022/04/10 04:35:20;;;;;;;8.00;5.10;;;2.10;99.90;;;;;;5031362;28;20322;-71
2022/04/10 04:38:06;;;;;;;15.00;6.97;;;2.10;99.90;;;;;;5024723;28;20415;-71
2022/04/10 04:40:51;;;;;;;9.77;6.07;;;2.10;99.90;;;;;;5032262;28;20242;-70
2022/04/10 04:43:39;;;;;;;5.90;5.30;;;2.00;99.90;;;;;;5027921;28;20332;-71
2022/04/10 04:46:25;;;;;;;10.88;6.57;;;2.00;99.90;;;;;;5033505;28;20195;-72
2022/04/10 04:49:10;;;;;;;8.82;5.22;;;2.00;99.90;;;;;;5027892;28;20226;-71
2022/04/10 04:51:56;;;;;;;9.15;6.30;;;2.00;99.90;;;;;;5027780;28;20211;-72
2022/04/10 04:54:41;;;;;;;10.95;5.95;;;1.90;99.90;;;;;;5032547;28;20200;-71
2022/04/10 04:57:27;;;;;;;10.48;6.38;;;1.90;99.90;;;;;;5026585;28;20275;-72
2022/04/10 05:00:16;;;;;;;10.43;6.07;;;2.00;99.90;;;;;;5026358;28;20233;-72
2022/04/10 05:03:01;;;;;;;7.47;5.68;;;2.00;99.90;;;;;;5028163;28;20249;-71
2022/04/10 05:05:47;;;;;;;7.60;6.25;;;2.10;99.90;;;;;;5024639;28;20208;-72
2022/04/10 05:08:33;;;;;;;7.10;5.63;;;2.20;99.90;;;;;;5029328;28;20210;-73
2022/04/10 05:11:19;;;;;;;8.35;5.50;;;2.30;99.90;;;;;;5025845;28;20702;-71
2022/04/10 05:14:04;;;;;;;8.73;5.90;;;2.40;99.90;;;;;;5027818;28;20203;-71
2022/04/10 05:16:51;;;;;;;9.52;6.75;;;2.50;99.90;;;;;;5026950;28;20279;-75
2022/04/10 05:19:37;;;;;;;7.63;5.85;;;2.50;99.90;;;;;;5022824;28;20249;-71
2022/04/10 05:22:23;;;;;;;7.63;5.70;;;2.60;99.90;;;;;;5028718;28;20287;-70
2022/04/10 05:25:09;;;;;;;9.32;6.03;;;2.50;99.90;;;;;;5023541;28;20212;-71
2022/04/10 05:27:55;;;;;;;8.68;6.78;;;2.40;99.90;;;;;;5023704;28;20200;-71
2022/04/10 05:30:41;;;;;;;7.20;6.00;;;2.50;99.90;;;;;;5028064;28;20226;-71
2022/04/10 05:33:28;;;;;;;7.10;6.20;;;2.50;99.90;;;;;;5028118;28;20237;-72
2022/04/10 05:36:14;;;;;;;9.93;7.35;;;2.70;99.90;;;;;;5025400;28;20306;-71
2022/04/10 05:38:59;;;;;;;11.15;7.10;;;2.90;99.90;;;;;;5022537;28;20567;-72
2022/04/10 05:41:45;;;;;;;9.35;6.78;;;3.10;99.90;;;;;;5025592;28;20346;-70
2022/04/10 05:44:32;;;;;;;7.03;6.13;;;3.20;99.90;;;;;;5023751;28;20298;-75
2022/04/10 05:47:19;;;;;;;7.20;6.35;;;3.20;99.90;;;;;;5019186;28;20208;-71
2022/04/10 05:50:07;;;;;;;9.80;6.72;;;3.20;99.90;;;;;;5029375;28;20228;-72
2022/04/10 05:52:53;;;;;;;7.43;6.57;;;3.20;99.90;;;;;;5025080;28;20303;-71
2022/04/10 05:55:39;;;;;;;11.00;7.55;;;3.20;99.90;;;;;;5027658;28;20445;-71
2022/04/10 05:58:25;;;;;;;10.45;7.22;;;3.10;99.90;;;;;;5024781;28;20559;-74
2022/04/10 06:01:10;;;;;;;11.82;7.90;;;3.20;99.90;;;;;;5028339;28;20204;-71
2022/04/10 06:03:56;;;;;;;9.20;7.20;;;3.30;99.90;;;;;;5045628;22;20233;-78
2022/04/10 06:06:43;;;;;;;10.35;8.38;;;3.30;99.90;;;;;;5014629;28;20202;-78
2022/04/10 06:09:28;;;;;;;11.63;9.80;;;3.40;99.90;;;;;;5022914;28;20674;-78
2022/04/10 06:12:14;;;;;;;19.57;11.47;;;3.50;99.90;;;;;;5020626;28;20247;-78
2022/04/10 06:15:00;;;;;;;10.20;8.85;;;3.60;99.90;;;;;;5016095;28;20526;-78
2022/04/10 06:17:46;;;;;;;11.55;9.18;;;3.60;99.90;;;;;;5013400;28;20220;-78
2022/04/10 06:20:31;;;;;;;11.32;8.43;;;3.70;99.90;;;;;;5018855;28;20213;-78
2022/04/10 06:23:20;;;;;;;9.90;7.90;;;3.70;99.90;;;;;;5017600;28;20313;-78
2022/04/10 06:26:05;;;;;;;8.88;7.90;;;3.70;99.90;;;;;;5014759;28;20210;-77
2022/04/10 06:28:53;;;;;;;10.50;6.95;;;3.70;99.90;;;;;;5017541;28;20212;-77
2022/04/10 06:31:38;;;;;;;10.18;6.82;;;3.70;99.90;;;;;;5019017;28;20697;-76
2022/04/10 06:34:24;;;;;;;11.50;7.40;;;3.80;99.90;;;;;;5018925;28;20706;-78
2022/04/10 06:37:10;;;;;;;9.43;7.40;;;3.80;99.90;;;;;;5016605;28;20265;-78
2022/04/10 06:39:57;;;;;;;10.05;7.93;;;3.90;99.90;;;;;;5020633;28;20261;-79
2022/04/10 06:42:42;;;;;;;11.68;7.85;;;3.80;99.90;;;;;;5019686;28;20197;-77
2022/04/10 06:45:28;;;;;;;13.35;7.95;;;3.80;99.90;;;;;;5017154;28;20229;-79
2022/04/10 06:48:15;;;;;;;11.40;8.23;;;3.80;99.90;;;;;;5020751;28;20260;-78
2022/04/10 06:51:01;;;;;;;10.13;8.15;;;3.90;99.90;;;;;;5020661;28;20246;-78
2022/04/10 06:53:47;;;;;;;10.57;8.55;;;4.00;99.90;;;;;;5015696;28;20292;-78
2022/04/10 06:56:34;;;;;;;9.65;8.20;;;4.10;99.90;;;;;;5017894;28;20221;-78
2022/04/10 06:59:19;;;;;;;10.10;8.65;;;4.10;99.90;;;;;;5017371;28;20346;-78
2022/04/10 07:02:05;;;;;;;12.27;8.57;;;4.10;99.90;;;;;;5021147;28;20770;-78
2022/04/10 07:04:51;;;;;;;11.18;7.93;;;4.10;99.90;;;;;;5018590;28;20495;-79
2022/04/10 07:07:36;;;;;;;12.52;9.15;;;4.20;99.90;;;;;;5015308;28;20296;-78
2022/04/10 07:10:22;;;;;;;10.93;8.82;;;4.20;99.90;;;;;;5015016;28;20213;-78
2022/04/10 07:13:09;;;;;;;9.75;8.20;;;4.30;99.90;;;;;;5021004;28;20225;-78
2022/04/10 07:15:55;;;;;;;12.10;8.93;;;4.40;99.90;;;;;;5013684;28;20301;-77
2022/04/10 07:18:41;;;;;;;12.20;9.65;;;4.30;99.90;;;;;;5016842;28;20305;-77
2022/04/10 07:24:26;;;;;;;10.23;9.07;;;4.40;99.90;;;;;;5021857;28;20363;-79
2022/04/10 07:27:12;;;;;;;10.27;7.93;;;4.40;99.90;;;;;;5018642;28;20197;-78
2022/04/10 07:29:59;;;;;;;9.07;8.13;;;4.40;99.90;;;;;;5018269;28;20197;-79
2022/04/10 07:32:51;;;;;;;11.40;8.73;;;4.40;99.90;;;;;;5017510;28;20331;-78
2022/04/10 07:35:37;;;;;;;11.20;8.20;;;4.40;99.90;;;;;;5014675;28;20222;-77
2022/04/10 07:38:23;;;;;;;13.00;8.40;;;4.40;99.90;;;;;;5011901;28;20460;-78
2022/04/10 07:41:09;;;;;;;11.65;8.15;;;4.50;99.90;;;;;;5015221;28;20214;-79
2022/04/10 07:43:54;;;;;;;13.30;8.93;;;4.50;99.90;;;;;;5018803;28;20235;-78
2022/04/10 07:49:44;;;;;;;11.63;9.07;;;4.50;99.90;;;;;;5016099;28;20224;-78
2022/04/10 07:52:30;;;;;;;15.20;9.13;;;4.50;99.90;;;;;;5014444;28;20241;-78
2022/04/10 07:55:16;;;;;;;11.88;8.75;;;4.50;99.90;;;;;;5016199;28;20442;-78
2022/04/10 07:58:02;;;;;;;13.25;8.85;;;4.50;99.90;;;;;;5018529;28;20213;-78
2022/04/10 08:00:48;;;;;;;15.40;9.85;;;4.40;99.90;;;;;;5018440;28;20201;-78
2022/04/10 08:03:35;;;;;;;18.87;10.17;;;4.40;99.90;;;;;;5017682;28;20564;-78
2022/04/10 08:06:21;;;;;;;11.10;8.40;;;4.50;99.90;;;;;;5013283;28;20506;-77
2022/04/10 08:09:06;;;;;;;12.10;9.40;;;4.40;99.90;;;;;;5016539;28;20440;-77
2022/04/10 08:11:53;;;;;;;11.57;8.87;;;4.50;99.90;;;;;;5013891;28;20279;-78
2022/04/10 08:14:39;;;;;;;11.77;9.50;;;4.50;99.90;;;;;;5013106;28;20478;-77
2022/04/10 08:17:25;;;;;;;12.40;10.10;;;4.40;99.90;;;;;;5016089;28;20496;-77
2022/04/10 08:20:12;;;;;;;14.00;11.90;;;4.40;99.90;;;;;;5015978;28;20435;-77
2022/04/10 08:23:00;;;;;;;22.30;14.30;;;4.40;99.90;;;;;;5017415;28;20420;-78
2022/04/10 08:25:46;;;;;;;19.33;16.88;;;4.30;99.90;;;;;;5011476;28;20291;-78
2022/04/10 08:28:32;;;;;;;22.83;16.02;;;4.40;99.90;;;;;;5018691;28;20778;-75
2022/04/10 08:31:17;;;;;;;19.10;15.52;;;4.30;99.90;;;;;;5018224;28;20685;-76
2022/04/10 08:34:03;;;;;;;19.63;16.02;;;4.30;99.90;;;;;;5011674;28;20768;-76
2022/04/10 08:36:50;;;;;;;41.33;24.88;;;4.20;99.90;;;;;;5015422;28;20689;-76
2022/04/10 08:39:36;;;;;;;37.88;21.77;;;4.30;99.90;;;;;;5014237;28;20263;-76
2022/04/10 08:42:22;;;;;;;46.97;26.67;;;4.40;99.90;;;;;;5011076;28;20244;-76
2022/04/10 08:45:09;;;;;;;19.02;12.75;;;4.40;99.90;;;;;;5008930;28;20244;-76
2022/04/10 08:47:56;;;;;;;15.77;10.27;;;4.50;99.90;;;;;;5011013;28;20338;-76
2022/04/10 08:50:43;;;;;;;17.17;11.48;;;4.50;99.90;;;;;;5013430;28;20202;-78
2022/04/10 08:53:33;;;;;;;13.50;9.50;;;4.60;99.90;;;;;;5012276;28;20201;-78
2022/04/10 08:56:19;;;;;;;12.87;10.07;;;4.70;99.90;;;;;;5009962;28;20453;-78
2022/04/10 08:59:05;;;;;;;20.30;9.43;;;4.80;99.90;;;;;;5016805;28;20469;-78
2022/04/10 09:01:54;;;;;;;12.63;9.20;;;4.80;99.90;;;;;;5024184;28;20244;-78
2022/04/10 09:04:40;;;;;;;18.65;9.00;;;4.80;99.90;;;;;;5012897;28;20555;-78
2022/04/10 09:07:25;;;;;;;13.10;9.45;;;4.90;99.90;;;;;;5014669;28;20218;-77
2022/04/10 09:10:14;;;;;;;12.40;9.63;;;4.80;99.90;;;;;;5014125;28;20613;-77
2022/04/10 09:13:08;;;;;;;13.75;9.93;;;4.70;99.90;;;;;;5014204;28;20966;-77
2022/04/10 09:16:02;;;;;;;11.03;9.10;;;4.80;99.90;;;;;;5009979;28;20212;-77
2022/04/10 09:18:54;;;;;;;10.77;9.00;;;4.90;99.90;;;;;;5017281;28;20536;-77
2022/04/10 09:21:43;;;;;;;12.30;9.53;;;4.90;99.90;;;;;;5018266;28;20950;-77
2022/04/10 09:24:29;;;;;;;10.87;8.23;;;5.00;99.90;;;;;;5011875;28;20481;-77
2022/04/10 09:27:30;;;;;;;16.13;9.37;;;5.10;99.90;;;;;;5014939;28;20436;-77
2022/04/10 09:30:17;;;;;;;12.98;8.40;;;5.10;99.90;;;;;;5016272;28;20829;-78
2022/04/10 09:33:03;;;;;;;16.33;8.65;;;5.20;99.90;;;;;;5010845;28;20304;-77
2022/04/10 09:35:49;;;;;;;12.60;9.17;;;5.20;99.90;;;;;;5011709;28;20230;-78
2022/04/10 09:38:35;;;;;;;14.70;9.57;;;5.30;99.90;;;;;;5016084;28;20592;-77
2022/04/10 09:41:22;;;;;;;11.07;8.30;;;5.50;99.90;;;;;;5009320;28;20466;-78
2022/04/10 09:44:23;;;;;;;13.50;8.93;;;5.30;99.90;;;;;;5012367;28;20451;-78
2022/04/10 09:47:11;;;;;;;11.27;9.07;;;5.30;99.90;;;;;;5015050;28;20404;-74
2022/04/10 09:50:06;;;;;;;15.27;10.87;;;5.40;99.90;;;;;;5015654;28;20438;-76
2022/04/10 09:52:52;;;;;;;14.50;9.33;;;5.50;99.90;;;;;;5022382;28;20432;-75
2022/04/10 09:55:39;;;;;;;10.47;8.60;;;5.70;99.90;;;;;;5024359;28;20504;-76
2022/04/10 09:58:25;;;;;;;12.00;7.53;;;5.80;99.90;;;;;;5007682;28;20615;-77
2022/04/10 10:01:12;;;;;;;15.30;9.03;;;5.90;99.90;;;;;;5004997;28;20444;-76
2022/04/10 10:03:59;;;;;;;9.63;8.20;;;6.00;99.90;;;;;;5009548;28;20456;-77
2022/04/10 10:06:45;;;;;;;11.73;7.53;;;6.10;99.90;;;;;;5013193;28;20533;-77
2022/04/10 10:09:33;;;;;;;10.63;7.70;;;6.10;99.90;;;;;;5009402;28;20524;-77
2022/04/10 10:12:19;;;;;;;10.27;7.20;;;6.40;99.90;;;;;;5010468;28;20882;-78
2022/04/10 10:15:07;;;;;;;14.33;7.73;;;6.60;99.90;;;;;;5005524;28;20494;-77
2022/04/10 10:17:54;;;;;;;9.40;7.27;;;6.70;99.90;;;;;;5006679;28;20548;-77
2022/04/10 10:20:42;;;;;;;8.07;6.87;;;6.80;99.90;;;;;;5009365;28;20489;-78
2022/04/10 10:23:28;;;;;;;9.83;7.70;;;6.90;99.90;;;;;;5010151;28;20448;-77
2022/04/10 10:26:30;;;;;;;14.47;8.20;;;6.90;99.90;;;;;;5010551;28;20433;-76
2022/04/10 10:29:46;;;;;;;9.37;7.70;;;7.00;99.90;;;;;;5010108;28;20553;-77
2022/04/10 10:32:43;;;;;;;9.30;7.90;;;7.10;99.90;;;;;;5009874;28;20757;-77
2022/04/10 10:35:35;;;;;;;12.60;7.97;;;7.20;99.90;;;;;;5012024;28;20439;-77
2022/04/10 10:38:22;;;;;;;9.60;7.90;;;7.40;99.90;;;;;;5011119;28;20520;-78
2022/04/10 10:41:31;;;;;;;10.57;6.90;;;7.60;99.90;;;;;;5012587;28;20504;-78
2022/04/10 10:44:42;;;;;;;13.43;7.70;;;7.80;99.90;;;;;;5007812;28;20956;-77
2022/04/10 10:47:34;;;;;;;8.30;6.57;;;8.10;99.90;;;;;;5008035;28;21041;-77
2022/04/10 10:50:27;;;;;;;11.60;7.67;;;8.30;99.90;;;;;;5012952;28;20811;-76
2022/04/10 10:53:14;;;;;;;10.43;7.60;;;8.50;99.90;;;;;;5014599;28;20539;-75
2022/04/10 10:56:00;;;;;;;10.77;7.70;;;8.60;99.90;;;;;;5012371;28;20453;-76
2022/04/10 10:58:48;;;;;;;11.27;8.30;;;8.90;99.90;;;;;;5009278;28;20869;-75
2022/04/10 11:01:33;;;;;;;10.27;7.40;;;8.80;99.90;;;;;;5007357;28;20529;-77
2022/04/10 11:04:20;;;;;;;9.13;7.30;;;8.90;99.90;;;;;;4974965;28;1187373;-75
2022/04/10 11:07:22;;;;;;;10.10;7.10;;;8.90;99.90;;;;;;5008351;28;20269;-76
2022/04/10 11:10:12;;;;;;;7.23;6.10;;;8.80;99.90;;;;;;5008925;28;20509;-76
2022/04/10 11:13:02;;;;;;;12.23;6.33;;;8.70;99.90;;;;;;5008969;28;20437;-76
2022/04/10 11:15:50;;;;;;;11.00;6.90;;;8.70;99.90;;;;;;5012540;28;20820;-76
2022/04/10 11:18:36;;;;;;;9.50;6.73;;;8.80;99.90;;;;;;5013812;28;20478;-76
2022/04/10 11:21:23;;;;;;;8.00;6.60;;;8.90;99.90;;;;;;5015460;28;20417;-76
2022/04/10 11:24:10;;;;;;;11.70;6.80;;;9.10;99.90;;;;;;5014234;28;20444;-76
2022/04/10 11:26:57;;;;;;;8.13;6.80;;;9.10;99.90;;;;;;5009604;28;20441;-76
2022/04/10 11:29:49;;;;;;;13.23;7.63;;;9.40;99.90;;;;;;5013860;28;20408;-76
2022/04/10 11:32:42;;;;;;;13.43;8.10;;;9.70;99.90;;;;;;5012829;28;20696;-76
2022/04/10 11:35:30;;;;;;;11.10;7.77;;;10.00;99.90;;;;;;5009599;28;20462;-76
2022/04/10 11:38:17;;;;;;;12.03;8.67;;;10.10;99.90;;;;;;5014134;28;20444;-76
2022/04/10 11:41:03;;;;;;;12.40;9.37;;;10.30;99.90;;;;;;5014871;28;20534;-75
2022/04/10 11:43:52;;;;;;;13.60;8.60;;;10.50;99.90;;;;;;5010780;28;20473;-76
2022/04/10 11:46:38;;;;;;;14.50;9.47;;;10.50;99.90;;;;;;5013427;28;20424;-76
2022/04/10 11:49:23;;;;;;;11.03;8.80;;;10.20;99.90;;;;;;5013529;28;20429;-76
2022/04/10 11:52:09;;;;;;;12.67;10.03;;;10.10;99.90;;;;;;5019701;28;20580;-76
2022/04/10 11:54:55;;;;;;;12.70;9.57;;;10.20;99.90;;;;;;5005008;28;20495;-76
2022/04/10 11:57:41;;;;;;;12.77;9.07;;;10.30;99.90;;;;;;5012925;28;20493;-77
2022/04/10 12:00:28;;;;;;;12.90;9.67;;;10.40;99.90;;;;;;5025117;28;20427;-77
2022/04/10 12:03:14;;;;;;;13.77;9.50;;;10.60;99.90;;;;;;5012704;28;20453;-77
2022/04/10 12:06:00;;;;;;;13.53;9.77;;;10.50;99.90;;;;;;5014284;28;20428;-77
2022/04/10 12:08:47;;;;;;;10.27;8.73;;;10.40;99.90;;;;;;5011554;28;20969;-78
2022/04/10 12:11:39;;;;;;;13.43;10.57;;;10.40;99.90;;;;;;5013275;28;20402;-77
2022/04/10 12:14:25;;;;;;;14.17;9.87;;;10.40;99.90;;;;;;5009713;28;20466;-75
2022/04/10 12:17:13;;;;;;;15.50;11.20;;;10.50;99.90;;;;;;5012199;28;20411;-78
2022/04/10 12:19:58;;;;;;;18.03;10.70;;;10.40;99.90;;;;;;5018063;28;20606;-76
2022/04/10 12:22:44;;;;;;;12.93;9.87;;;10.50;99.90;;;;;;5015691;28;21025;-79
2022/04/10 12:25:30;;;;;;;12.53;9.93;;;10.70;99.90;;;;;;5020890;28;20448;-78
2022/04/10 12:28:16;;;;;;;13.00;9.93;;;10.40;99.90;;;;;;5016638;28;20944;-78
2022/04/10 12:31:03;;;;;;;11.13;9.20;;;10.50;99.90;;;;;;5013236;28;20445;-79
2022/04/10 12:33:50;;;;;;;11.90;10.53;;;10.80;99.90;;;;;;5013664;28;20444;-79
2022/04/10 12:36:46;;;;;;;13.13;10.03;;;10.90;99.90;;;;;;5015288;28;20582;-78
2022/04/10 12:39:31;;;;;;;12.00;9.13;;;10.40;94.50;;;;;;5016580;28;20464;-79
2022/04/10 12:42:19;;;;;;;13.30;9.33;;;10.50;99.90;;;;;;5017151;28;20419;-78
2022/04/10 12:45:10;;;;;;;10.17;8.20;;;10.90;94.50;;;;;;5007537;28;20483;-79
2022/04/10 12:47:56;;;;;;;12.60;9.00;;;11.20;87.20;;;;;;5015523;28;20550;-78
2022/04/10 12:50:43;;;;;;;12.70;8.50;;;11.60;87.50;;;;;;5019686;28;20441;-79
2022/04/10 12:53:28;;;;;;;13.43;8.13;;;11.60;81.40;;;;;;5012131;28;20521;-74
2022/04/10 12:56:19;;;;;;;11.43;8.87;;;11.40;81.90;;;;;;5005330;28;20413;-76
2022/04/10 12:59:05;;;;;;;13.47;8.03;;;11.30;85.30;;;;;;5008302;28;20541;-76
2022/04/10 13:01:56;;;;;;;10.57;8.67;;;11.30;84.10;;;;;;5005806;28;20968;-76
2022/04/10 13:04:52;;;;;;;15.50;9.53;;;11.30;83.90;;;;;;5003636;28;20529;-78
2022/04/10 13:07:55;;;;;;;13.30;7.97;;;11.00;85.40;;;;;;5007227;28;20495;-77
2022/04/10 13:10:50;;;;;;;19.57;10.87;;;10.90;86.80;;;;;;5014041;28;20454;-78
2022/04/10 13:13:57;;;;;;;13.33;9.07;;;10.60;86.20;;;;;;5010407;28;20529;-76
2022/04/10 13:16:44;;;;;;;15.30;9.50;;;10.40;87.60;;;;;;5007417;28;20464;-77
2022/04/10 13:19:30;;;;;;;13.90;9.47;;;10.40;89.50;;;;;;5012431;28;20436;-78
2022/04/10 13:22:16;;;;;;;13.73;9.30;;;10.30;87.70;;;;;;5009105;28;22488;-78
2022/04/10 13:25:04;;;;;;;12.93;7.93;;;10.10;89.30;;;;;;5007159;28;20494;-78
2022/04/10 13:27:51;;;;;;;10.67;8.30;;;10.00;88.40;;;;;;5009685;28;20429;-78
2022/04/10 13:30:37;;;;;;;11.30;8.40;;;9.80;90.70;;;;;;5013442;28;20413;-78
2022/04/10 13:33:23;;;;;;;18.30;9.97;;;9.70;91.80;;;;;;5012556;28;20509;-79
2022/04/10 13:36:08;;;;;;;22.70;6.67;;;9.70;93.40;;;;;;5012286;28;20506;-78
2022/04/10 13:38:54;;;;;;;7.83;5.73;;;9.50;91.70;;;;;;5013736;28;20517;-79
2022/04/10 13:41:43;;;;;;;9.00;5.30;;;9.30;89.40;;;;;;5018610;28;20439;-77
2022/04/10 13:44:29;;;;;;;6.20;3.63;;;9.20;91.00;;;;;;5007042;28;20437;-78
2022/04/10 13:47:15;;;;;;;5.30;3.20;;;9.50;90.60;;;;;;5010551;28;20420;-79
2022/04/10 13:50:00;;;;;;;7.27;3.07;;;9.90;83.40;;;;;;5014540;28;20418;-77
2022/04/10 13:52:46;;;;;;;11.63;3.17;;;10.10;77.30;;;;;;5010941;28;21038;-76
2022/04/10 13:55:32;;;;;;;6.33;2.93;;;10.30;81.50;;;;;;5010459;28;20452;-79
2022/04/10 13:58:19;;;;;;;6.23;2.67;;;10.70;79.00;;;;;;5014747;28;20545;-79
2022/04/10 14:01:05;;;;;;;4.33;2.10;;;10.90;76.10;;;;;;5014767;28;20436;-78
2022/04/10 14:03:51;;;;;;;6.57;2.90;;;11.20;71.60;;;;;;5007177;28;20495;-78
2022/04/10 14:06:36;;;;;;;11.63;3.23;;;11.50;67.70;;;;;;5014367;28;20468;-79
2022/04/10 14:09:23;;;;;;;5.93;3.17;;;11.70;64.60;;;;;;5013949;28;20436;-78
2022/04/10 14:12:10;;;;;;;8.37;4.97;;;11.50;63.10;;;;;;5009104;28;20433;-78
2022/04/10 14:14:58;;;;;;;4.80;3.73;;;11.10;62.80;;;;;;5009577;28;20470;-77
2022/04/10 14:17:43;;;;;;;4.83;3.67;;;11.00;64.50;;;;;;5011476;28;20427;-77
2022/04/10 14:20:29;;;;;;;8.90;4.70;;;10.60;66.90;;;;;;5013475;28;20484;-77
2022/04/10 14:23:14;;;;;;;5.80;4.70;;;10.50;77.40;;;;;;5011414;28;21061;-78
2022/04/10 14:26:00;;;;;;;6.43;4.57;;;10.40;82.10;;;;;;5013332;28;20462;-76
2022/04/10 14:28:45;;;;;;;11.00;5.43;;;10.10;89.70;;;;;;5016612;28;20427;-78
2022/04/10 14:31:33;;;;;;;7.93;5.10;;;9.70;97.40;;;;;;5016945;28;20393;-76
2022/04/10 14:34:19;;;;;;;6.83;4.30;;;9.50;99.90;;;;;;5013509;28;20561;-75
2022/04/10 14:37:05;;;;;;;5.37;4.13;;;9.30;99.90;;;;;;5015330;28;20431;-78